sensor_id;sensor_type;location;lat;lon;timestamp;P1;durP1;ratioP1;P2;durP2;ratioP2
17850;SDS011;9051;51.548;14.348;2022-11-11T00:01:59;5.47;;;2.93;;
17850;SDS011;9051;51.548;14.348;2022-11-11T00:04:50;5.67;;;3.10;;
17850;SDS011;9051;51.548;14.348;2022-11-11T00:07:41;7.93;;;3.67;;
17850;SDS011;9051;51.548;14.348;2022-11-11T00:10:32;5.37;;;3.23;;
17850;SDS011;9051;51.548;14.348;2022-11-11T00:13:23;8.10;;;3.60;;
17850;SDS011;9051;51.548;14.348;2022-11-11T00:16:16;6.40;;;3.13;;
17850;SDS011;9051;51.548;14.348;2022-11-11T00:19:08;4.57;;;2.97;;
17850;SDS011;9051;51.548;14.348;2022-11-11T00:22:20;6.63;;;3.30;;
17850;SDS011;9051;51.548;14.348;2022-11-11T00:25:30;5.57;;;3.20;;
17850;SDS011;9051;51.548;14.348;2022-11-11T00:28:20;5.70;;;3.20;;
17850;SDS011;9051;51.548;14.348;2022-11-11T00:31:11;4.57;;;3.13;;
17850;SDS011;9051;51.548;14.348;2022-11-11T00:34:05;6.60;;;3.60;;
17850;SDS011;9051;51.548;14.348;2022-11-11T00:36:55;5.83;;;3.20;;
17850;SDS011;9051;51.548;14.348;2022-11-11T00:39:45;10.83;;;4.00;;
17850;SDS011;9051;51.548;14.348;2022-11-11T00:42:36;4.40;;;2.97;;
17850;SDS011;9051;51.548;14.348;2022-11-11T00:45:26;5.90;;;3.23;;
17850;SDS011;9051;51.548;14.348;2022-11-11T00:48:18;5.83;;;3.70;;
17850;SDS011;9051;51.548;14.348;2022-11-11T00:51:28;4.30;;;2.97;;
17850;SDS011;9051;51.548;14.348;2022-11-11T00:54:18;7.03;;;3.27;;
17850;SDS011;9051;51.548;14.348;2022-11-11T00:57:09;4.57;;;3.10;;
17850;SDS011;9051;51.548;14.348;2022-11-11T01:00:02;6.87;;;3.27;;
17850;SDS011;9051;51.548;14.348;2022-11-11T01:02:53;4.93;;;3.20;;
17850;SDS011;9051;51.548;14.348;2022-11-11T01:05:44;4.47;;;3.03;;
17850;SDS011;9051;51.548;14.348;2022-11-11T01:08:37;7.03;;;3.40;;
17850;SDS011;9051;51.548;14.348;2022-11-11T01:11:30;6.37;;;3.60;;
17850;SDS011;9051;51.548;14.348;2022-11-11T01:14:21;5.77;;;2.90;;
17850;SDS011;9051;51.548;14.348;2022-11-11T01:17:11;5.13;;;3.13;;
17850;SDS011;9051;51.548;14.348;2022-11-11T01:20:02;5.53;;;3.40;;
17850;SDS011;9051;51.548;14.348;2022-11-11T01:22:53;5.37;;;3.00;;
17850;SDS011;9051;51.548;14.348;2022-11-11T01:25:45;6.47;;;2.97;;
17850;SDS011;9051;51.548;14.348;2022-11-11T01:28:37;7.27;;;3.50;;
17850;SDS011;9051;51.548;14.348;2022-11-11T01:31:28;6.77;;;3.80;;
17850;SDS011;9051;51.548;14.348;2022-11-11T01:34:19;7.03;;;3.37;;
17850;SDS011;9051;51.548;14.348;2022-11-11T01:37:10;9.93;;;3.90;;
17850;SDS011;9051;51.548;14.348;2022-11-11T01:40:01;7.43;;;3.20;;
17850;SDS011;9051;51.548;14.348;2022-11-11T01:42:53;6.97;;;3.10;;
17850;SDS011;9051;51.548;14.348;2022-11-11T01:46:14;7.57;;;3.67;;
17850;SDS011;9051;51.548;14.348;2022-11-11T01:49:15;4.63;;;3.10;;
17850;SDS011;9051;51.548;14.348;2022-11-11T01:52:12;5.93;;;3.27;;
17850;SDS011;9051;51.548;14.348;2022-11-11T01:55:07;6.57;;;3.20;;
17850;SDS011;9051;51.548;14.348;2022-11-11T01:58:04;9.77;;;3.60;;
17850;SDS011;9051;51.548;14.348;2022-11-11T02:00:59;6.63;;;3.30;;
17850;SDS011;9051;51.548;14.348;2022-11-11T02:03:52;5.67;;;3.10;;
17850;SDS011;9051;51.548;14.348;2022-11-11T02:07:03;6.57;;;3.57;;
17850;SDS011;9051;51.548;14.348;2022-11-11T02:09:56;6.17;;;3.30;;
17850;SDS011;9051;51.548;14.348;2022-11-11T02:12:47;5.80;;;3.67;;
17850;SDS011;9051;51.548;14.348;2022-11-11T02:15:57;6.10;;;3.30;;
17850;SDS011;9051;51.548;14.348;2022-11-11T02:18:48;7.20;;;3.30;;
17850;SDS011;9051;51.548;14.348;2022-11-11T02:21:41;6.43;;;3.40;;
17850;SDS011;9051;51.548;14.348;2022-11-11T02:24:39;9.17;;;3.70;;
17850;SDS011;9051;51.548;14.348;2022-11-11T02:27:31;7.90;;;3.47;;
17850;SDS011;9051;51.548;14.348;2022-11-11T02:30:25;4.87;;;2.73;;
17850;SDS011;9051;51.548;14.348;2022-11-11T02:33:16;4.27;;;2.93;;
17850;SDS011;9051;51.548;14.348;2022-11-11T02:36:07;7.70;;;3.43;;
17850;SDS011;9051;51.548;14.348;2022-11-11T02:39:03;6.13;;;3.13;;
17850;SDS011;9051;51.548;14.348;2022-11-11T02:41:55;5.87;;;3.30;;
17850;SDS011;9051;51.548;14.348;2022-11-11T02:44:46;3.40;;;2.70;;
17850;SDS011;9051;51.548;14.348;2022-11-11T02:47:36;5.20;;;3.40;;
17850;SDS011;9051;51.548;14.348;2022-11-11T02:50:28;6.20;;;3.70;;
17850;SDS011;9051;51.548;14.348;2022-11-11T02:53:18;6.33;;;3.20;;
17850;SDS011;9051;51.548;14.348;2022-11-11T02:56:10;4.33;;;2.93;;
17850;SDS011;9051;51.548;14.348;2022-11-11T02:59:22;3.87;;;3.07;;
17850;SDS011;9051;51.548;14.348;2022-11-11T03:02:13;5.73;;;3.03;;
17850;SDS011;9051;51.548;14.348;2022-11-11T03:05:03;7.50;;;3.43;;
17850;SDS011;9051;51.548;14.348;2022-11-11T03:07:55;6.63;;;3.17;;
17850;SDS011;9051;51.548;14.348;2022-11-11T03:10:46;5.77;;;3.30;;
17850;SDS011;9051;51.548;14.348;2022-11-11T03:13:37;5.43;;;3.03;;
17850;SDS011;9051;51.548;14.348;2022-11-11T03:16:29;3.60;;;2.83;;
17850;SDS011;9051;51.548;14.348;2022-11-11T03:19:51;5.23;;;3.23;;
17850;SDS011;9051;51.548;14.348;2022-11-11T03:23:04;6.30;;;3.20;;
17850;SDS011;9051;51.548;14.348;2022-11-11T03:25:56;7.10;;;3.73;;
17850;SDS011;9051;51.548;14.348;2022-11-11T03:28:46;5.13;;;3.13;;
17850;SDS011;9051;51.548;14.348;2022-11-11T03:31:39;5.70;;;3.47;;
17850;SDS011;9051;51.548;14.348;2022-11-11T03:34:30;7.07;;;3.40;;
17850;SDS011;9051;51.548;14.348;2022-11-11T03:37:21;5.83;;;2.93;;
17850;SDS011;9051;51.548;14.348;2022-11-11T03:40:29;5.50;;;3.37;;
17850;SDS011;9051;51.548;14.348;2022-11-11T03:43:20;5.13;;;3.00;;
17850;SDS011;9051;51.548;14.348;2022-11-11T03:46:13;6.53;;;3.10;;
17850;SDS011;9051;51.548;14.348;2022-11-11T03:49:05;4.47;;;3.40;;
17850;SDS011;9051;51.548;14.348;2022-11-11T03:51:56;9.17;;;3.40;;
17850;SDS011;9051;51.548;14.348;2022-11-11T03:54:50;5.17;;;2.97;;
17850;SDS011;9051;51.548;14.348;2022-11-11T03:57:40;7.00;;;3.63;;
17850;SDS011;9051;51.548;14.348;2022-11-11T04:00:33;9.23;;;3.40;;
17850;SDS011;9051;51.548;14.348;2022-11-11T04:03:24;4.40;;;3.33;;
17850;SDS011;9051;51.548;14.348;2022-11-11T04:06:33;5.63;;;3.37;;
17850;SDS011;9051;51.548;14.348;2022-11-11T04:09:42;9.13;;;3.90;;
17850;SDS011;9051;51.548;14.348;2022-11-11T04:12:51;8.13;;;3.10;;
17850;SDS011;9051;51.548;14.348;2022-11-11T04:16:01;7.53;;;3.50;;
17850;SDS011;9051;51.548;14.348;2022-11-11T04:18:57;7.60;;;3.47;;
17850;SDS011;9051;51.548;14.348;2022-11-11T04:22:07;5.67;;;3.53;;
17850;SDS011;9051;51.548;14.348;2022-11-11T04:24:57;6.50;;;3.30;;
17850;SDS011;9051;51.548;14.348;2022-11-11T04:28:05;7.27;;;3.67;;
17850;SDS011;9051;51.548;14.348;2022-11-11T04:31:14;6.83;;;3.47;;
17850;SDS011;9051;51.548;14.348;2022-11-11T04:34:05;5.43;;;3.30;;
17850;SDS011;9051;51.548;14.348;2022-11-11T04:36:55;5.77;;;3.33;;
17850;SDS011;9051;51.548;14.348;2022-11-11T04:39:47;6.57;;;3.13;;
17850;SDS011;9051;51.548;14.348;2022-11-11T04:42:58;6.27;;;3.10;;
17850;SDS011;9051;51.548;14.348;2022-11-11T04:45:49;7.47;;;3.03;;
17850;SDS011;9051;51.548;14.348;2022-11-11T04:48:38;6.47;;;2.80;;
17850;SDS011;9051;51.548;14.348;2022-11-11T04:51:29;6.37;;;2.80;;
17850;SDS011;9051;51.548;14.348;2022-11-11T04:54:40;5.03;;;2.87;;
17850;SDS011;9051;51.548;14.348;2022-11-11T04:57:46;5.37;;;2.83;;
17850;SDS011;9051;51.548;14.348;2022-11-11T05:00:37;5.97;;;2.70;;
17850;SDS011;9051;51.548;14.348;2022-11-11T05:03:28;6.30;;;2.67;;
17850;SDS011;9051;51.548;14.348;2022-11-11T05:06:18;5.17;;;2.63;;
17850;SDS011;9051;51.548;14.348;2022-11-11T05:09:31;4.67;;;2.70;;
17850;SDS011;9051;51.548;14.348;2022-11-11T05:12:23;6.47;;;3.20;;
17850;SDS011;9051;51.548;14.348;2022-11-11T05:15:15;5.10;;;3.10;;
17850;SDS011;9051;51.548;14.348;2022-11-11T05:18:25;5.13;;;3.17;;
17850;SDS011;9051;51.548;14.348;2022-11-11T05:21:33;7.43;;;2.73;;
17850;SDS011;9051;51.548;14.348;2022-11-11T05:24:24;5.33;;;2.97;;
17850;SDS011;9051;51.548;14.348;2022-11-11T05:27:32;5.20;;;2.93;;
17850;SDS011;9051;51.548;14.348;2022-11-11T05:30:24;3.80;;;2.60;;
17850;SDS011;9051;51.548;14.348;2022-11-11T05:33:15;4.63;;;2.50;;
17850;SDS011;9051;51.548;14.348;2022-11-11T05:36:06;8.40;;;3.20;;
17850;SDS011;9051;51.548;14.348;2022-11-11T05:38:57;6.20;;;3.03;;
17850;SDS011;9051;51.548;14.348;2022-11-11T05:41:48;4.23;;;2.80;;
17850;SDS011;9051;51.548;14.348;2022-11-11T05:44:39;6.03;;;2.67;;
17850;SDS011;9051;51.548;14.348;2022-11-11T05:47:30;5.73;;;2.73;;
17850;SDS011;9051;51.548;14.348;2022-11-11T05:50:21;7.03;;;2.80;;
17850;SDS011;9051;51.548;14.348;2022-11-11T05:53:12;4.90;;;2.60;;
17850;SDS011;9051;51.548;14.348;2022-11-11T05:56:03;6.10;;;2.83;;
17850;SDS011;9051;51.548;14.348;2022-11-11T05:58:57;5.67;;;2.43;;
17850;SDS011;9051;51.548;14.348;2022-11-11T06:01:48;5.70;;;2.70;;
17850;SDS011;9051;51.548;14.348;2022-11-11T06:04:41;3.27;;;2.17;;
17850;SDS011;9051;51.548;14.348;2022-11-11T06:07:32;6.17;;;2.47;;
17850;SDS011;9051;51.548;14.348;2022-11-11T06:10:22;6.77;;;2.67;;
17850;SDS011;9051;51.548;14.348;2022-11-11T06:13:22;6.80;;;2.40;;
17850;SDS011;9051;51.548;14.348;2022-11-11T06:16:13;4.67;;;2.20;;
17850;SDS011;9051;51.548;14.348;2022-11-11T06:19:04;7.33;;;2.40;;
17850;SDS011;9051;51.548;14.348;2022-11-11T06:21:56;8.40;;;2.60;;
17850;SDS011;9051;51.548;14.348;2022-11-11T06:24:48;3.80;;;2.20;;
17850;SDS011;9051;51.548;14.348;2022-11-11T06:27:59;6.23;;;2.87;;
17850;SDS011;9051;51.548;14.348;2022-11-11T06:30:50;5.33;;;2.60;;
17850;SDS011;9051;51.548;14.348;2022-11-11T06:33:41;6.53;;;2.50;;
17850;SDS011;9051;51.548;14.348;2022-11-11T06:36:32;6.13;;;2.17;;
17850;SDS011;9051;51.548;14.348;2022-11-11T06:39:26;6.53;;;2.80;;
17850;SDS011;9051;51.548;14.348;2022-11-11T06:42:17;7.23;;;2.70;;
17850;SDS011;9051;51.548;14.348;2022-11-11T06:45:08;5.37;;;2.03;;
17850;SDS011;9051;51.548;14.348;2022-11-11T06:47:59;5.00;;;2.37;;
17850;SDS011;9051;51.548;14.348;2022-11-11T06:50:49;4.97;;;2.63;;
17850;SDS011;9051;51.548;14.348;2022-11-11T06:53:40;5.13;;;2.50;;
17850;SDS011;9051;51.548;14.348;2022-11-11T06:56:32;5.60;;;2.50;;
17850;SDS011;9051;51.548;14.348;2022-11-11T06:59:23;7.00;;;2.40;;
17850;SDS011;9051;51.548;14.348;2022-11-11T07:02:13;3.83;;;2.60;;
17850;SDS011;9051;51.548;14.348;2022-11-11T07:05:04;4.87;;;2.60;;
17850;SDS011;9051;51.548;14.348;2022-11-11T07:07:55;5.73;;;2.60;;
17850;SDS011;9051;51.548;14.348;2022-11-11T07:10:46;5.00;;;2.70;;
17850;SDS011;9051;51.548;14.348;2022-11-11T07:13:39;3.63;;;2.40;;
17850;SDS011;9051;51.548;14.348;2022-11-11T07:16:29;5.37;;;2.77;;
17850;SDS011;9051;51.548;14.348;2022-11-11T07:19:20;6.57;;;2.70;;
17850;SDS011;9051;51.548;14.348;2022-11-11T07:22:10;5.17;;;2.63;;
17850;SDS011;9051;51.548;14.348;2022-11-11T07:25:01;4.20;;;2.30;;
17850;SDS011;9051;51.548;14.348;2022-11-11T07:27:52;8.80;;;2.60;;
17850;SDS011;9051;51.548;14.348;2022-11-11T07:30:45;5.43;;;3.10;;
17850;SDS011;9051;51.548;14.348;2022-11-11T07:33:35;6.53;;;2.73;;
17850;SDS011;9051;51.548;14.348;2022-11-11T07:36:26;4.83;;;2.80;;
17850;SDS011;9051;51.548;14.348;2022-11-11T07:39:17;7.50;;;3.23;;
17850;SDS011;9051;51.548;14.348;2022-11-11T07:42:07;4.93;;;2.87;;
17850;SDS011;9051;51.548;14.348;2022-11-11T07:44:58;4.10;;;2.43;;
17850;SDS011;9051;51.548;14.348;2022-11-11T07:47:51;7.40;;;4.57;;
17850;SDS011;9051;51.548;14.348;2022-11-11T07:50:43;7.03;;;3.73;;
17850;SDS011;9051;51.548;14.348;2022-11-11T07:53:33;6.60;;;2.97;;
17850;SDS011;9051;51.548;14.348;2022-11-11T07:56:25;5.97;;;2.73;;
17850;SDS011;9051;51.548;14.348;2022-11-11T07:59:16;6.23;;;2.80;;
17850;SDS011;9051;51.548;14.348;2022-11-11T08:02:08;3.93;;;2.30;;
17850;SDS011;9051;51.548;14.348;2022-11-11T08:05:00;4.07;;;2.37;;
17850;SDS011;9051;51.548;14.348;2022-11-11T08:07:51;5.57;;;2.30;;
17850;SDS011;9051;51.548;14.348;2022-11-11T08:10:41;6.40;;;2.63;;
17850;SDS011;9051;51.548;14.348;2022-11-11T08:13:32;4.63;;;2.30;;
17850;SDS011;9051;51.548;14.348;2022-11-11T08:16:31;4.67;;;2.70;;
17850;SDS011;9051;51.548;14.348;2022-11-11T08:19:22;5.07;;;2.20;;
17850;SDS011;9051;51.548;14.348;2022-11-11T08:22:14;5.70;;;2.40;;
17850;SDS011;9051;51.548;14.348;2022-11-11T08:25:05;4.67;;;2.63;;
17850;SDS011;9051;51.548;14.348;2022-11-11T08:27:57;5.13;;;2.67;;
17850;SDS011;9051;51.548;14.348;2022-11-11T08:30:49;5.73;;;2.63;;
17850;SDS011;9051;51.548;14.348;2022-11-11T08:33:40;5.40;;;2.57;;
17850;SDS011;9051;51.548;14.348;2022-11-11T08:36:31;3.73;;;2.30;;
17850;SDS011;9051;51.548;14.348;2022-11-11T08:39:23;4.77;;;2.17;;
17850;SDS011;9051;51.548;14.348;2022-11-11T08:42:15;6.30;;;2.00;;
17850;SDS011;9051;51.548;14.348;2022-11-11T08:45:06;4.03;;;2.23;;
17850;SDS011;9051;51.548;14.348;2022-11-11T08:47:57;2.87;;;1.93;;
17850;SDS011;9051;51.548;14.348;2022-11-11T08:50:50;3.93;;;2.00;;
17850;SDS011;9051;51.548;14.348;2022-11-11T08:53:41;4.47;;;2.47;;
17850;SDS011;9051;51.548;14.348;2022-11-11T08:56:37;5.37;;;2.37;;
17850;SDS011;9051;51.548;14.348;2022-11-11T08:59:28;5.73;;;2.40;;
17850;SDS011;9051;51.548;14.348;2022-11-11T09:02:20;5.13;;;2.10;;
17850;SDS011;9051;51.548;14.348;2022-11-11T09:05:11;4.70;;;2.17;;
17850;SDS011;9051;51.548;14.348;2022-11-11T09:08:01;5.33;;;2.53;;
17850;SDS011;9051;51.548;14.348;2022-11-11T09:10:56;4.23;;;2.30;;
17850;SDS011;9051;51.548;14.348;2022-11-11T09:13:48;5.67;;;2.23;;
17850;SDS011;9051;51.548;14.348;2022-11-11T09:16:39;6.23;;;2.17;;
17850;SDS011;9051;51.548;14.348;2022-11-11T09:19:29;5.27;;;2.10;;
17850;SDS011;9051;51.548;14.348;2022-11-11T09:22:21;3.77;;;1.80;;
17850;SDS011;9051;51.548;14.348;2022-11-11T09:25:11;3.27;;;1.90;;
17850;SDS011;9051;51.548;14.348;2022-11-11T09:28:06;3.00;;;1.90;;
17850;SDS011;9051;51.548;14.348;2022-11-11T09:30:58;6.80;;;2.10;;
17850;SDS011;9051;51.548;14.348;2022-11-11T09:33:49;4.10;;;1.87;;
17850;SDS011;9051;51.548;14.348;2022-11-11T09:42:10;6.13;;;1.83;;
17850;SDS011;9051;51.548;14.348;2022-11-11T09:45:13;3.90;;;1.83;;
17850;SDS011;9051;51.548;14.348;2022-11-11T09:48:19;6.33;;;1.87;;
17850;SDS011;9051;51.548;14.348;2022-11-11T09:51:22;5.13;;;1.73;;
17850;SDS011;9051;51.548;14.348;2022-11-11T09:54:16;3.47;;;1.60;;
17850;SDS011;9051;51.548;14.348;2022-11-11T09:57:10;4.67;;;2.10;;
17850;SDS011;9051;51.548;14.348;2022-11-11T10:00:13;3.63;;;1.60;;
17850;SDS011;9051;51.548;14.348;2022-11-11T10:03:09;5.40;;;1.90;;
17850;SDS011;9051;51.548;14.348;2022-11-11T10:06:05;4.57;;;1.83;;
17850;SDS011;9051;51.548;14.348;2022-11-11T10:09:00;2.93;;;1.43;;
17850;SDS011;9051;51.548;14.348;2022-11-11T10:11:58;4.30;;;1.60;;
17850;SDS011;9051;51.548;14.348;2022-11-11T10:14:54;4.30;;;1.80;;
17850;SDS011;9051;51.548;14.348;2022-11-11T10:17:48;4.83;;;1.90;;
17850;SDS011;9051;51.548;14.348;2022-11-11T10:20:51;5.00;;;2.00;;
17850;SDS011;9051;51.548;14.348;2022-11-11T10:23:47;2.27;;;1.60;;
17850;SDS011;9051;51.548;14.348;2022-11-11T10:26:39;3.13;;;1.67;;
17850;SDS011;9051;51.548;14.348;2022-11-11T10:29:35;3.47;;;1.73;;
17850;SDS011;9051;51.548;14.348;2022-11-11T10:32:32;3.33;;;1.60;;
17850;SDS011;9051;51.548;14.348;2022-11-11T10:35:24;5.17;;;2.33;;
17850;SDS011;9051;51.548;14.348;2022-11-11T10:38:19;3.83;;;1.53;;
17850;SDS011;9051;51.548;14.348;2022-11-11T10:41:20;3.73;;;1.60;;
17850;SDS011;9051;51.548;14.348;2022-11-11T10:44:20;2.90;;;1.60;;
17850;SDS011;9051;51.548;14.348;2022-11-11T10:47:12;3.53;;;1.60;;
17850;SDS011;9051;51.548;14.348;2022-11-11T10:50:11;3.73;;;1.60;;
17850;SDS011;9051;51.548;14.348;2022-11-11T10:53:08;4.50;;;1.77;;
17850;SDS011;9051;51.548;14.348;2022-11-11T10:56:07;5.57;;;2.00;;
17850;SDS011;9051;51.548;14.348;2022-11-11T10:59:06;4.90;;;1.87;;
17850;SDS011;9051;51.548;14.348;2022-11-11T11:02:04;4.43;;;1.63;;
17850;SDS011;9051;51.548;14.348;2022-11-11T11:05:00;3.77;;;1.70;;
17850;SDS011;9051;51.548;14.348;2022-11-11T11:07:55;3.70;;;1.67;;
17850;SDS011;9051;51.548;14.348;2022-11-11T11:10:51;5.40;;;1.57;;
17850;SDS011;9051;51.548;14.348;2022-11-11T11:13:45;3.83;;;1.63;;
17850;SDS011;9051;51.548;14.348;2022-11-11T11:16:45;5.53;;;1.60;;
17850;SDS011;9051;51.548;14.348;2022-11-11T11:19:39;3.33;;;1.73;;
17850;SDS011;9051;51.548;14.348;2022-11-11T11:22:43;4.03;;;1.63;;
17850;SDS011;9051;51.548;14.348;2022-11-11T11:25:35;4.70;;;1.90;;
17850;SDS011;9051;51.548;14.348;2022-11-11T11:28:26;3.27;;;1.37;;
17850;SDS011;9051;51.548;14.348;2022-11-11T11:31:16;2.20;;;1.40;;
17850;SDS011;9051;51.548;14.348;2022-11-11T11:34:14;3.10;;;1.27;;
17850;SDS011;9051;51.548;14.348;2022-11-11T11:37:05;6.30;;;1.50;;
17850;SDS011;9051;51.548;14.348;2022-11-11T11:39:59;2.00;;;1.30;;
17850;SDS011;9051;51.548;14.348;2022-11-11T11:42:51;2.43;;;1.40;;
17850;SDS011;9051;51.548;14.348;2022-11-11T11:45:42;3.17;;;1.20;;
17850;SDS011;9051;51.548;14.348;2022-11-11T11:48:34;3.13;;;1.37;;
17850;SDS011;9051;51.548;14.348;2022-11-11T11:51:41;3.30;;;1.30;;
17850;SDS011;9051;51.548;14.348;2022-11-11T11:54:45;4.03;;;1.60;;
17850;SDS011;9051;51.548;14.348;2022-11-11T11:57:53;2.27;;;1.47;;
17850;SDS011;9051;51.548;14.348;2022-11-11T12:00:55;2.53;;;1.30;;
17850;SDS011;9051;51.548;14.348;2022-11-11T12:04:05;3.60;;;1.20;;
17850;SDS011;9051;51.548;14.348;2022-11-11T12:07:13;5.20;;;1.50;;
17850;SDS011;9051;51.548;14.348;2022-11-11T12:10:14;3.53;;;1.50;;
17850;SDS011;9051;51.548;14.348;2022-11-11T12:13:16;2.20;;;1.20;;
17850;SDS011;9051;51.548;14.348;2022-11-11T12:16:18;2.00;;;1.20;;
17850;SDS011;9051;51.548;14.348;2022-11-11T12:19:19;3.00;;;1.17;;
17850;SDS011;9051;51.548;14.348;2022-11-11T12:22:31;6.67;;;1.60;;
17850;SDS011;9051;51.548;14.348;2022-11-11T12:25:47;3.33;;;1.37;;
17850;SDS011;9051;51.548;14.348;2022-11-11T12:28:49;3.43;;;1.40;;
17850;SDS011;9051;51.548;14.348;2022-11-11T12:31:59;2.97;;;1.30;;
17850;SDS011;9051;51.548;14.348;2022-11-11T12:35:05;1.50;;;1.23;;
17850;SDS011;9051;51.548;14.348;2022-11-11T12:38:11;4.60;;;1.60;;
17850;SDS011;9051;51.548;14.348;2022-11-11T12:41:15;4.00;;;1.30;;
17850;SDS011;9051;51.548;14.348;2022-11-11T12:44:14;4.30;;;1.20;;
17850;SDS011;9051;51.548;14.348;2022-11-11T12:47:13;2.60;;;1.30;;
17850;SDS011;9051;51.548;14.348;2022-11-11T12:50:15;3.90;;;1.67;;
17850;SDS011;9051;51.548;14.348;2022-11-11T12:53:15;2.77;;;1.70;;
17850;SDS011;9051;51.548;14.348;2022-11-11T12:56:17;3.23;;;1.80;;
17850;SDS011;9051;51.548;14.348;2022-11-11T12:59:17;3.23;;;1.30;;
17850;SDS011;9051;51.548;14.348;2022-11-11T13:02:20;3.43;;;1.57;;
17850;SDS011;9051;51.548;14.348;2022-11-11T13:05:28;2.90;;;1.47;;
17850;SDS011;9051;51.548;14.348;2022-11-11T13:08:48;2.40;;;1.47;;
17850;SDS011;9051;51.548;14.348;2022-11-11T13:11:47;3.13;;;1.40;;
17850;SDS011;9051;51.548;14.348;2022-11-11T13:14:56;3.00;;;1.40;;
17850;SDS011;9051;51.548;14.348;2022-11-11T13:17:52;2.60;;;1.30;;
17850;SDS011;9051;51.548;14.348;2022-11-11T13:20:45;3.33;;;1.57;;
17850;SDS011;9051;51.548;14.348;2022-11-11T13:23:39;4.40;;;1.50;;
17850;SDS011;9051;51.548;14.348;2022-11-11T13:26:32;2.43;;;1.23;;
17850;SDS011;9051;51.548;14.348;2022-11-11T13:29:32;4.13;;;1.30;;
17850;SDS011;9051;51.548;14.348;2022-11-11T13:32:34;3.33;;;1.37;;
17850;SDS011;9051;51.548;14.348;2022-11-11T13:35:31;3.10;;;1.30;;
17850;SDS011;9051;51.548;14.348;2022-11-11T13:38:25;3.30;;;1.50;;
17850;SDS011;9051;51.548;14.348;2022-11-11T13:41:20;4.17;;;1.67;;
17850;SDS011;9051;51.548;14.348;2022-11-11T13:44:18;2.93;;;1.40;;
17850;SDS011;9051;51.548;14.348;2022-11-11T13:47:11;2.83;;;1.57;;
17850;SDS011;9051;51.548;14.348;2022-11-11T13:50:08;3.37;;;1.10;;
17850;SDS011;9051;51.548;14.348;2022-11-11T13:53:04;2.43;;;1.57;;
17850;SDS011;9051;51.548;14.348;2022-11-11T13:55:59;2.23;;;1.50;;
17850;SDS011;9051;51.548;14.348;2022-11-11T13:58:51;3.63;;;1.63;;
17850;SDS011;9051;51.548;14.348;2022-11-11T14:01:45;3.30;;;1.40;;
17850;SDS011;9051;51.548;14.348;2022-11-11T14:07:56;5.00;;;1.70;;
17850;SDS011;9051;51.548;14.348;2022-11-11T14:10:51;2.37;;;1.40;;
17850;SDS011;9051;51.548;14.348;2022-11-11T14:13:45;4.07;;;1.67;;
17850;SDS011;9051;51.548;14.348;2022-11-11T14:23:31;3.13;;;1.90;;
17850;SDS011;9051;51.548;14.348;2022-11-11T14:26:25;1.70;;;1.47;;
17850;SDS011;9051;51.548;14.348;2022-11-11T14:29:18;4.53;;;1.83;;
17850;SDS011;9051;51.548;14.348;2022-11-11T14:32:31;4.53;;;1.70;;
17850;SDS011;9051;51.548;14.348;2022-11-11T14:35:35;3.17;;;1.70;;
17850;SDS011;9051;51.548;14.348;2022-11-11T14:38:40;1.40;;;1.30;;
17850;SDS011;9051;51.548;14.348;2022-11-11T14:41:42;3.57;;;1.30;;
17850;SDS011;9051;51.548;14.348;2022-11-11T14:44:38;3.27;;;1.73;;
17850;SDS011;9051;51.548;14.348;2022-11-11T14:47:34;2.50;;;1.50;;
17850;SDS011;9051;51.548;14.348;2022-11-11T14:50:42;1.43;;;1.20;;
17850;SDS011;9051;51.548;14.348;2022-11-11T14:53:35;4.10;;;1.50;;
17850;SDS011;9051;51.548;14.348;2022-11-11T14:56:30;3.47;;;1.13;;
17850;SDS011;9051;51.548;14.348;2022-11-11T14:59:22;3.17;;;1.40;;
17850;SDS011;9051;51.548;14.348;2022-11-11T15:02:21;1.90;;;1.20;;
17850;SDS011;9051;51.548;14.348;2022-11-11T15:05:17;2.80;;;1.37;;
17850;SDS011;9051;51.548;14.348;2022-11-11T15:08:14;1.93;;;1.10;;
17850;SDS011;9051;51.548;14.348;2022-11-11T15:11:16;2.13;;;1.20;;
17850;SDS011;9051;51.548;14.348;2022-11-11T15:14:20;3.73;;;1.40;;
17850;SDS011;9051;51.548;14.348;2022-11-11T15:17:20;2.33;;;1.23;;
17850;SDS011;9051;51.548;14.348;2022-11-11T15:20:33;2.53;;;1.40;;
17850;SDS011;9051;51.548;14.348;2022-11-11T15:23:44;1.63;;;1.27;;
17850;SDS011;9051;51.548;14.348;2022-11-11T15:26:41;4.03;;;1.30;;
17850;SDS011;9051;51.548;14.348;2022-11-11T15:29:44;2.10;;;1.20;;
17850;SDS011;9051;51.548;14.348;2022-11-11T15:32:57;1.53;;;1.00;;
17850;SDS011;9051;51.548;14.348;2022-11-11T15:35:56;2.33;;;1.43;;
17850;SDS011;9051;51.548;14.348;2022-11-11T15:38:50;1.73;;;1.27;;
17850;SDS011;9051;51.548;14.348;2022-11-11T15:41:42;4.10;;;1.53;;
17850;SDS011;9051;51.548;14.348;2022-11-11T15:44:35;2.33;;;1.40;;
17850;SDS011;9051;51.548;14.348;2022-11-11T15:47:26;2.60;;;1.30;;
17850;SDS011;9051;51.548;14.348;2022-11-11T15:50:29;3.73;;;1.23;;
17850;SDS011;9051;51.548;14.348;2022-11-11T15:53:23;1.97;;;1.10;;
17850;SDS011;9051;51.548;14.348;2022-11-11T15:56:25;1.90;;;1.20;;
17850;SDS011;9051;51.548;14.348;2022-11-11T15:59:18;2.83;;;1.43;;
17850;SDS011;9051;51.548;14.348;2022-11-11T16:02:12;2.13;;;1.33;;
17850;SDS011;9051;51.548;14.348;2022-11-11T16:05:13;3.53;;;1.70;;
17850;SDS011;9051;51.548;14.348;2022-11-11T16:08:07;2.77;;;1.50;;
17850;SDS011;9051;51.548;14.348;2022-11-11T16:11:08;2.40;;;1.53;;
17850;SDS011;9051;51.548;14.348;2022-11-11T16:14:02;5.20;;;2.00;;
17850;SDS011;9051;51.548;14.348;2022-11-11T16:16:53;3.47;;;2.10;;
17850;SDS011;9051;51.548;14.348;2022-11-11T16:19:47;3.90;;;2.70;;
17850;SDS011;9051;51.548;14.348;2022-11-11T16:22:39;4.97;;;3.57;;
17850;SDS011;9051;51.548;14.348;2022-11-11T16:25:32;5.53;;;4.10;;
17850;SDS011;9051;51.548;14.348;2022-11-11T16:28:29;5.03;;;2.90;;
17850;SDS011;9051;51.548;14.348;2022-11-11T16:31:37;7.93;;;4.97;;
17850;SDS011;9051;51.548;14.348;2022-11-11T16:34:36;9.70;;;7.20;;
17850;SDS011;9051;51.548;14.348;2022-11-11T16:37:41;9.83;;;5.93;;
17850;SDS011;9051;51.548;14.348;2022-11-11T16:40:40;7.53;;;4.37;;
17850;SDS011;9051;51.548;14.348;2022-11-11T16:43:33;6.43;;;3.70;;
17850;SDS011;9051;51.548;14.348;2022-11-11T16:46:37;4.30;;;2.50;;
17850;SDS011;9051;51.548;14.348;2022-11-11T16:49:29;3.60;;;2.20;;
17850;SDS011;9051;51.548;14.348;2022-11-11T16:52:22;4.17;;;1.80;;
17850;SDS011;9051;51.548;14.348;2022-11-11T16:55:18;3.43;;;1.77;;
17850;SDS011;9051;51.548;14.348;2022-11-11T16:58:13;4.67;;;1.83;;
17850;SDS011;9051;51.548;14.348;2022-11-11T17:01:08;3.57;;;1.93;;
17850;SDS011;9051;51.548;14.348;2022-11-11T17:03:58;2.30;;;1.60;;
17850;SDS011;9051;51.548;14.348;2022-11-11T17:06:53;2.00;;;1.37;;
17850;SDS011;9051;51.548;14.348;2022-11-11T17:09:44;2.57;;;1.73;;
17850;SDS011;9051;51.548;14.348;2022-11-11T17:12:36;2.63;;;1.70;;
17850;SDS011;9051;51.548;14.348;2022-11-11T17:15:27;2.80;;;1.50;;
17850;SDS011;9051;51.548;14.348;2022-11-11T17:18:20;3.03;;;1.70;;
17850;SDS011;9051;51.548;14.348;2022-11-11T17:21:10;2.60;;;1.77;;
17850;SDS011;9051;51.548;14.348;2022-11-11T17:24:02;4.03;;;1.90;;
17850;SDS011;9051;51.548;14.348;2022-11-11T17:26:53;3.77;;;1.90;;
17850;SDS011;9051;51.548;14.348;2022-11-11T17:29:44;2.70;;;1.93;;
17850;SDS011;9051;51.548;14.348;2022-11-11T17:32:35;5.40;;;2.10;;
17850;SDS011;9051;51.548;14.348;2022-11-11T17:35:28;3.27;;;1.97;;
17850;SDS011;9051;51.548;14.348;2022-11-11T17:38:21;3.73;;;2.13;;
17850;SDS011;9051;51.548;14.348;2022-11-11T17:41:12;5.40;;;2.20;;
17850;SDS011;9051;51.548;14.348;2022-11-11T17:44:03;4.23;;;2.30;;
17850;SDS011;9051;51.548;14.348;2022-11-11T17:46:54;4.13;;;2.50;;
17850;SDS011;9051;51.548;14.348;2022-11-11T17:49:44;4.37;;;2.33;;
17850;SDS011;9051;51.548;14.348;2022-11-11T17:52:36;5.33;;;2.37;;
17850;SDS011;9051;51.548;14.348;2022-11-11T17:55:27;3.13;;;2.00;;